sensor_id;sensor_type;location;lat;lon;timestamp;pressure;altitude;pressure_sealevel;temperature;humidity
12987;BME280;58897;51.960;5.582;2022-11-15T00:00:58;100545.19;;;6.87;100.00
12987;BME280;58897;51.960;5.582;2022-11-15T00:03:27;100539.00;;;6.77;100.00
12987;BME280;58897;51.960;5.582;2022-11-15T00:05:54;100539.16;;;6.66;100.00
12987;BME280;58897;51.960;5.582;2022-11-15T00:08:20;100538.72;;;6.80;100.00
12987;BME280;58897;51.960;5.582;2022-11-15T00:10:57;100543.78;;;6.83;100.00
12987;BME280;58897;51.960;5.582;2022-11-15T00:13:24;100539.38;;;6.92;100.00
12987;BME280;58897;51.960;5.582;2022-11-15T00:15:50;100542.50;;;6.87;100.00
12987;BME280;58897;51.960;5.582;2022-11-15T00:18:17;100540.78;;;6.96;100.00
12987;BME280;58897;51.960;5.582;2022-11-15T00:20:44;100546.16;;;6.96;100.00
12987;BME280;58897;51.960;5.582;2022-11-15T00:23:11;100547.47;;;6.82;100.00
12987;BME280;58897;51.960;5.582;2022-11-15T00:25:37;100548.72;;;6.88;100.00
12987;BME280;58897;51.960;5.582;2022-11-15T00:28:04;100536.38;;;6.95;100.00
12987;BME280;58897;51.960;5.582;2022-11-15T00:30:30;100531.88;;;6.95;100.00
12987;BME280;58897;51.960;5.582;2022-11-15T00:33:04;100529.88;;;6.97;100.00
12987;BME280;58897;51.960;5.582;2022-11-15T00:35:32;100527.19;;;6.97;100.00
12987;BME280;58897;51.960;5.582;2022-11-15T00:38:00;100534.16;;;6.90;100.00
12987;BME280;58897;51.960;5.582;2022-11-15T00:40:27;100527.34;;;6.96;100.00
12987;BME280;58897;51.960;5.582;2022-11-15T00:42:54;100530.91;;;6.87;100.00
12987;BME280;58897;51.960;5.582;2022-11-15T00:45:21;100529.19;;;6.95;100.00
12987;BME280;58897;51.960;5.582;2022-11-15T00:47:48;100526.75;;;7.02;100.00
12987;BME280;58897;51.960;5.582;2022-11-15T00:50:14;100536.56;;;6.93;100.00
12987;BME280;58897;51.960;5.582;2022-11-15T00:52:42;100530.47;;;6.91;100.00
12987;BME280;58897;51.960;5.582;2022-11-15T00:55:15;100530.84;;;7.06;100.00
12987;BME280;58897;51.960;5.582;2022-11-15T00:57:42;100514.97;;;7.12;100.00
12987;BME280;58897;51.960;5.582;2022-11-15T01:00:10;100522.09;;;7.04;100.00
12987;BME280;58897;51.960;5.582;2022-11-15T01:02:36;100517.69;;;7.03;100.00
12987;BME280;58897;51.960;5.582;2022-11-15T01:05:03;100511.13;;;7.15;100.00
12987;BME280;58897;51.960;5.582;2022-11-15T01:07:30;100520.03;;;7.15;100.00
12987;BME280;58897;51.960;5.582;2022-11-15T01:09:57;100516.91;;;7.20;100.00
12987;BME280;58897;51.960;5.582;2022-11-15T01:12:23;100508.53;;;7.23;100.00
12987;BME280;58897;51.960;5.582;2022-11-15T01:14:50;100507.94;;;7.29;100.00
12987;BME280;58897;51.960;5.582;2022-11-15T01:17:16;100504.69;;;7.35;100.00
12987;BME280;58897;51.960;5.582;2022-11-15T01:19:42;100503.97;;;7.33;100.00
12987;BME280;58897;51.960;5.582;2022-11-15T01:22:09;100503.97;;;7.33;100.00
12987;BME280;58897;51.960;5.582;2022-11-15T01:24:35;100493.47;;;7.39;100.00
12987;BME280;58897;51.960;5.582;2022-11-15T01:27:02;100495.13;;;7.40;100.00
12987;BME280;58897;51.960;5.582;2022-11-15T01:29:29;100506.44;;;7.44;100.00
12987;BME280;58897;51.960;5.582;2022-11-15T01:31:55;100494.06;;;7.51;100.00
12987;BME280;58897;51.960;5.582;2022-11-15T01:34:21;100491.72;;;7.48;100.00
12987;BME280;58897;51.960;5.582;2022-11-15T01:36:48;100487.88;;;7.51;100.00
12987;BME280;58897;51.960;5.582;2022-11-15T01:39:15;100485.25;;;7.59;100.00
12987;BME280;58897;51.960;5.582;2022-11-15T01:41:41;100478.19;;;7.58;100.00
12987;BME280;58897;51.960;5.582;2022-11-15T01:47:03;100476.06;;;7.61;100.00
12987;BME280;58897;51.960;5.582;2022-11-15T01:49:32;100479.81;;;7.68;100.00
12987;BME280;58897;51.960;5.582;2022-11-15T01:52:01;100478.75;;;7.61;100.00
12987;BME280;58897;51.960;5.582;2022-11-15T01:54:29;100473.03;;;7.64;100.00
12987;BME280;58897;51.960;5.582;2022-11-15T01:57:04;100470.75;;;7.69;100.00
12987;BME280;58897;51.960;5.582;2022-11-15T01:59:33;100469.19;;;7.67;100.00
12987;BME280;58897;51.960;5.582;2022-11-15T02:01:59;100468.47;;;7.74;100.00
12987;BME280;58897;51.960;5.582;2022-11-15T02:04:28;100462.63;;;7.79;100.00
12987;BME280;58897;51.960;5.582;2022-11-15T02:06:56;100463.84;;;7.84;100.00
12987;BME280;58897;51.960;5.582;2022-11-15T02:09:23;100464.53;;;7.86;100.00
12987;BME280;58897;51.960;5.582;2022-11-15T02:11:50;100461.53;;;7.89;100.00
12987;BME280;58897;51.960;5.582;2022-11-15T02:14:19;100457.22;;;7.96;100.00
12987;BME280;58897;51.960;5.582;2022-11-15T02:28:10;100440.34;;;8.12;100.00
12987;BME280;58897;51.960;5.582;2022-11-15T02:30:55;100435.34;;;8.17;100.00
12987;BME280;58897;51.960;5.582;2022-11-15T02:33:36;100427.94;;;8.19;100.00
12987;BME280;58897;51.960;5.582;2022-11-15T02:36:15;100425.13;;;8.21;100.00
12987;BME280;58897;51.960;5.582;2022-11-15T02:41:38;100424.72;;;8.33;100.00
12987;BME280;58897;51.960;5.582;2022-11-15T02:44:26;100409.25;;;8.35;100.00
12987;BME280;58897;51.960;5.582;2022-11-15T02:46:58;100414.50;;;8.37;100.00
12987;BME280;58897;51.960;5.582;2022-11-15T02:49:50;100401.84;;;8.37;100.00
12987;BME280;58897;51.960;5.582;2022-11-15T02:52:20;100404.78;;;8.44;100.00
12987;BME280;58897;51.960;5.582;2022-11-15T02:54:58;100403.59;;;8.46;100.00
12987;BME280;58897;51.960;5.582;2022-11-15T03:00:30;100392.66;;;8.48;100.00
12987;BME280;58897;51.960;5.582;2022-11-15T03:03:14;100400.28;;;8.52;100.00
12987;BME280;58897;51.960;5.582;2022-11-15T03:11:15;100385.00;;;8.61;100.00
12987;BME280;58897;51.960;5.582;2022-11-15T03:14:00;100383.81;;;8.63;100.00
12987;BME280;58897;51.960;5.582;2022-11-15T03:22:07;100381.03;;;8.73;100.00
12987;BME280;58897;51.960;5.582;2022-11-15T03:24:37;100397.00;;;8.75;100.00
12987;BME280;58897;51.960;5.582;2022-11-15T03:27:06;100394.53;;;8.81;100.00
12987;BME280;58897;51.960;5.582;2022-11-15T03:29:38;100399.91;;;8.81;100.00
12987;BME280;58897;51.960;5.582;2022-11-15T03:32:12;100396.19;;;8.82;100.00
12987;BME280;58897;51.960;5.582;2022-11-15T03:34:44;100398.38;;;8.87;100.00
12987;BME280;58897;51.960;5.582;2022-11-15T03:37:15;100400.75;;;8.90;100.00
12987;BME280;58897;51.960;5.582;2022-11-15T03:39:43;100400.44;;;8.93;100.00
12987;BME280;58897;51.960;5.582;2022-11-15T03:42:24;100399.63;;;9.00;100.00
12987;BME280;58897;51.960;5.582;2022-11-15T03:45:13;100406.38;;;9.04;100.00
12987;BME280;58897;51.960;5.582;2022-11-15T03:47:46;100401.47;;;9.08;100.00
12987;BME280;58897;51.960;5.582;2022-11-15T03:50:18;100399.84;;;9.15;100.00
12987;BME280;58897;51.960;5.582;2022-11-15T03:52:47;100394.81;;;9.20;100.00
12987;BME280;58897;51.960;5.582;2022-11-15T03:55:19;100402.72;;;9.21;100.00
12987;BME280;58897;51.960;5.582;2022-11-15T03:57:48;100394.28;;;9.24;100.00
12987;BME280;58897;51.960;5.582;2022-11-15T04:00:16;100386.03;;;9.26;100.00
12987;BME280;58897;51.960;5.582;2022-11-15T04:02:43;100393.13;;;9.27;100.00
12987;BME280;58897;51.960;5.582;2022-11-15T04:05:09;100388.91;;;9.32;100.00
12987;BME280;58897;51.960;5.582;2022-11-15T04:07:36;100401.38;;;9.33;100.00
12987;BME280;58897;51.960;5.582;2022-11-15T04:10:03;100395.84;;;9.35;100.00
12987;BME280;58897;51.960;5.582;2022-11-15T04:12:35;100392.09;;;9.36;100.00
12987;BME280;58897;51.960;5.582;2022-11-15T04:15:06;100385.91;;;9.36;100.00
12987;BME280;58897;51.960;5.582;2022-11-15T04:20:05;100379.66;;;9.35;100.00
12987;BME280;58897;51.960;5.582;2022-11-15T04:22:54;100374.59;;;9.40;100.00
12987;BME280;58897;51.960;5.582;2022-11-15T04:25:39;100378.63;;;9.44;100.00
12987;BME280;58897;51.960;5.582;2022-11-15T04:28:06;100379.16;;;9.40;100.00
12987;BME280;58897;51.960;5.582;2022-11-15T04:30:33;100381.34;;;9.44;100.00
12987;BME280;58897;51.960;5.582;2022-11-15T04:32:59;100376.78;;;9.45;100.00
12987;BME280;58897;51.960;5.582;2022-11-15T04:35:26;100375.63;;;9.47;100.00
12987;BME280;58897;51.960;5.582;2022-11-15T04:37:53;100376.66;;;9.46;100.00
12987;BME280;58897;51.960;5.582;2022-11-15T04:40:20;100374.44;;;9.50;100.00
12987;BME280;58897;51.960;5.582;2022-11-15T04:42:46;100383.72;;;9.55;100.00
12987;BME280;58897;51.960;5.582;2022-11-15T04:45:13;100380.69;;;9.58;100.00
12987;BME280;58897;51.960;5.582;2022-11-15T04:47:40;100390.28;;;9.61;100.00
12987;BME280;58897;51.960;5.582;2022-11-15T04:50:09;100384.91;;;9.61;100.00
12987;BME280;58897;51.960;5.582;2022-11-15T04:52:43;100383.91;;;9.62;100.00
12987;BME280;58897;51.960;5.582;2022-11-15T04:55:10;100382.53;;;9.66;100.00
12987;BME280;58897;51.960;5.582;2022-11-15T04:57:37;100383.38;;;9.66;100.00
12987;BME280;58897;51.960;5.582;2022-11-15T05:00:06;100384.25;;;9.67;100.00
12987;BME280;58897;51.960;5.582;2022-11-15T05:02:33;100374.28;;;9.67;100.00
12987;BME280;58897;51.960;5.582;2022-11-15T05:05:18;100387.94;;;9.66;100.00
12987;BME280;58897;51.960;5.582;2022-11-15T05:07:45;100373.28;;;9.68;100.00
12987;BME280;58897;51.960;5.582;2022-11-15T05:10:11;100382.03;;;9.70;100.00
12987;BME280;58897;51.960;5.582;2022-11-15T05:12:38;100383.41;;;9.74;100.00
12987;BME280;58897;51.960;5.582;2022-11-15T05:15:05;100373.44;;;9.75;100.00
12987;BME280;58897;51.960;5.582;2022-11-15T05:17:32;100375.97;;;9.76;100.00
12987;BME280;58897;51.960;5.582;2022-11-15T05:19:58;100371.41;;;9.77;100.00
12987;BME280;58897;51.960;5.582;2022-11-15T05:22:25;100372.59;;;9.74;100.00
12987;BME280;58897;51.960;5.582;2022-11-15T05:24:52;100379.34;;;9.78;100.00
12987;BME280;58897;51.960;5.582;2022-11-15T05:27:18;100378.16;;;9.81;100.00
12987;BME280;58897;51.960;5.582;2022-11-15T05:29:45;100377.47;;;9.79;100.00
12987;BME280;58897;51.960;5.582;2022-11-15T05:32:12;100380.69;;;9.82;100.00
12987;BME280;58897;51.960;5.582;2022-11-15T05:34:39;100380.50;;;9.84;100.00
12987;BME280;58897;51.960;5.582;2022-11-15T05:37:05;100387.75;;;9.83;100.00
12987;BME280;58897;51.960;5.582;2022-11-15T05:39:32;100387.75;;;9.83;100.00
12987;BME280;58897;51.960;5.582;2022-11-15T05:42:11;100384.38;;;9.89;100.00
12987;BME280;58897;51.960;5.582;2022-11-15T05:44:41;100382.69;;;9.88;100.00
12987;BME280;58897;51.960;5.582;2022-11-15T05:47:12;100394.53;;;9.87;100.00
12987;BME280;58897;51.960;5.582;2022-11-15T05:49:42;100394.00;;;9.92;100.00
12987;BME280;58897;51.960;5.582;2022-11-15T05:52:12;100392.81;;;9.94;100.00
12987;BME280;58897;51.960;5.582;2022-11-15T05:54:39;100389.59;;;9.99;100.00
12987;BME280;58897;51.960;5.582;2022-11-15T05:57:06;100386.41;;;9.96;100.00
12987;BME280;58897;51.960;5.582;2022-11-15T05:59:34;100397.53;;;10.01;100.00
12987;BME280;58897;51.960;5.582;2022-11-15T06:02:01;100392.63;;;10.04;100.00
12987;BME280;58897;51.960;5.582;2022-11-15T06:04:28;100402.59;;;10.04;100.00
12987;BME280;58897;51.960;5.582;2022-11-15T06:06:54;100399.53;;;10.07;100.00
12987;BME280;58897;51.960;5.582;2022-11-15T06:09:21;100399.72;;;10.05;100.00
12987;BME280;58897;51.960;5.582;2022-11-15T06:11:48;100392.81;;;10.03;100.00
12987;BME280;58897;51.960;5.582;2022-11-15T06:14:14;100389.44;;;10.01;100.00
12987;BME280;58897;51.960;5.582;2022-11-15T06:16:41;100387.22;;;10.04;100.00
12987;BME280;58897;51.960;5.582;2022-11-15T06:19:07;100394.31;;;10.05;100.00
12987;BME280;58897;51.960;5.582;2022-11-15T06:21:34;100392.63;;;10.04;100.00
12987;BME280;58897;51.960;5.582;2022-11-15T06:24:00;100399.06;;;10.03;100.00
12987;BME280;58897;51.960;5.582;2022-11-15T06:26:27;100400.06;;;10.02;100.00
12987;BME280;58897;51.960;5.582;2022-11-15T06:28:53;100395.50;;;10.03;100.00
12987;BME280;58897;51.960;5.582;2022-11-15T06:31:20;100403.44;;;10.04;100.00
12987;BME280;58897;51.960;5.582;2022-11-15T06:33:46;100403.59;;;10.03;100.00
12987;BME280;58897;51.960;5.582;2022-11-15T06:36:13;100408.66;;;10.06;100.00
12987;BME280;58897;51.960;5.582;2022-11-15T06:38:46;100414.72;;;10.08;100.00
12987;BME280;58897;51.960;5.582;2022-11-15T06:41:13;100413.72;;;10.09;100.00
12987;BME280;58897;51.960;5.582;2022-11-15T06:43:40;100413.03;;;10.07;100.00
12987;BME280;58897;51.960;5.582;2022-11-15T06:46:07;100412.88;;;10.08;100.00
12987;BME280;58897;51.960;5.582;2022-11-15T06:48:34;100417.44;;;10.08;100.00
12987;BME280;58897;51.960;5.582;2022-11-15T06:51:03;100427.59;;;10.14;100.00
12987;BME280;58897;51.960;5.582;2022-11-15T06:53:30;100424.16;;;10.12;100.00
12987;BME280;58897;51.960;5.582;2022-11-15T06:56:02;100428.41;;;10.14;100.00
12987;BME280;58897;51.960;5.582;2022-11-15T06:58:29;100431.94;;;10.15;100.00
12987;BME280;58897;51.960;5.582;2022-11-15T07:01:00;100429.44;;;10.13;100.00
12987;BME280;58897;51.960;5.582;2022-11-15T07:03:28;100424.16;;;10.12;100.00
12987;BME280;58897;51.960;5.582;2022-11-15T07:05:56;100424.16;;;10.12;100.00
12987;BME280;58897;51.960;5.582;2022-11-15T07:08:32;100421.81;;;10.09;100.00
12987;BME280;58897;51.960;5.582;2022-11-15T07:11:00;100427.88;;;10.11;100.00
12987;BME280;58897;51.960;5.582;2022-11-15T07:13:29;100430.28;;;10.14;100.00
12987;BME280;58897;51.960;5.582;2022-11-15T07:15:56;100434.66;;;10.15;100.00
12987;BME280;58897;51.960;5.582;2022-11-15T07:18:22;100431.44;;;10.11;100.00
12987;BME280;58897;51.960;5.582;2022-11-15T07:20:49;100436.50;;;10.14;100.00
12987;BME280;58897;51.960;5.582;2022-11-15T07:23:15;100435.69;;;10.14;100.00
12987;BME280;58897;51.960;5.582;2022-11-15T07:25:42;100441.75;;;10.16;100.00
12987;BME280;58897;51.960;5.582;2022-11-15T07:28:09;100451.03;;;10.13;100.00
12987;BME280;58897;51.960;5.582;2022-11-15T07:30:35;100446.28;;;10.15;100.00
12987;BME280;58897;51.960;5.582;2022-11-15T07:33:09;100452.69;;;10.14;100.00
12987;BME280;58897;51.960;5.582;2022-11-15T07:35:35;100455.25;;;10.16;100.00
12987;BME280;58897;51.960;5.582;2022-11-15T07:38:02;100458.09;;;10.14;100.00
12987;BME280;58897;51.960;5.582;2022-11-15T07:40:30;100454.22;;;10.17;100.00
12987;BME280;58897;51.960;5.582;2022-11-15T07:45:27;100444.78;;;10.13;100.00
12987;BME280;58897;51.960;5.582;2022-11-15T07:47:54;100443.06;;;10.20;100.00
12987;BME280;58897;51.960;5.582;2022-11-15T07:50:23;100444.59;;;10.22;100.00
12987;BME280;58897;51.960;5.582;2022-11-15T07:52:54;100443.41;;;10.25;100.00
12987;BME280;58897;51.960;5.582;2022-11-15T07:55:23;100446.81;;;10.27;100.00
12987;BME280;58897;51.960;5.582;2022-11-15T07:57:49;100442.06;;;10.29;100.00
12987;BME280;58897;51.960;5.582;2022-11-15T08:00:17;100437.53;;;10.29;100.00
12987;BME280;58897;51.960;5.582;2022-11-15T08:02:43;100438.34;;;10.30;100.00
12987;BME280;58897;51.960;5.582;2022-11-15T08:05:10;100438.53;;;10.28;100.00
12987;BME280;58897;51.960;5.582;2022-11-15T08:07:37;100433.13;;;10.28;100.00
12987;BME280;58897;51.960;5.582;2022-11-15T08:10:05;100434.81;;;10.29;100.00
12987;BME280;58897;51.960;5.582;2022-11-15T08:12:33;100422.00;;;10.31;100.00
12987;BME280;58897;51.960;5.582;2022-11-15T08:15:00;100428.91;;;10.34;100.00
12987;BME280;58897;51.960;5.582;2022-11-15T08:17:27;100426.50;;;10.47;100.00
12987;BME280;58897;51.960;5.582;2022-11-15T08:19:53;100425.13;;;10.59;100.00
12987;BME280;58897;51.960;5.582;2022-11-15T08:22:20;100431.88;;;10.63;100.00
12987;BME280;58897;51.960;5.582;2022-11-15T08:24:46;100432.19;;;10.68;100.00
12987;BME280;58897;51.960;5.582;2022-11-15T08:27:13;100423.44;;;10.66;100.00
12987;BME280;58897;51.960;5.582;2022-11-15T08:29:43;100422.41;;;10.67;100.00
12987;BME280;58897;51.960;5.582;2022-11-15T08:32:10;100428.47;;;10.69;100.00
12987;BME280;58897;51.960;5.582;2022-11-15T08:34:38;100433.03;;;10.69;100.00
12987;BME280;58897;51.960;5.582;2022-11-15T08:37:05;100441.31;;;10.67;100.00
12987;BME280;58897;51.960;5.582;2022-11-15T08:39:32;100437.41;;;10.70;100.00
12987;BME280;58897;51.960;5.582;2022-11-15T08:41:58;100436.09;;;10.66;100.00
12987;BME280;58897;51.960;5.582;2022-11-15T08:44:25;100437.75;;;10.67;100.00
12987;BME280;58897;51.960;5.582;2022-11-15T08:46:52;100427.31;;;10.64;100.00
12987;BME280;58897;51.960;5.582;2022-11-15T08:49:18;100420.38;;;10.61;100.00
12987;BME280;58897;51.960;5.582;2022-11-15T08:51:45;100424.25;;;10.59;100.00
12987;BME280;58897;51.960;5.582;2022-11-15T08:54:12;100414.81;;;10.63;100.00
12987;BME280;58897;51.960;5.582;2022-11-15T08:56:38;100421.06;;;10.63;100.00
12987;BME280;58897;51.960;5.582;2022-11-15T08:59:05;100417.00;;;10.67;100.00
12987;BME280;58897;51.960;5.582;2022-11-15T09:01:31;100421.53;;;10.67;100.00
12987;BME280;58897;51.960;5.582;2022-11-15T09:03:58;100421.53;;;10.67;100.00
12987;BME280;58897;51.960;5.582;2022-11-15T09:06:25;100418.19;;;10.65;100.00
12987;BME280;58897;51.960;5.582;2022-11-15T09:08:52;100415.25;;;10.74;100.00
12987;BME280;58897;51.960;5.582;2022-11-15T09:11:19;100404.63;;;10.81;100.00
12987;BME280;58897;51.960;5.582;2022-11-15T09:13:49;100410.53;;;10.84;100.00
12987;BME280;58897;51.960;5.582;2022-11-15T09:16:15;100408.00;;;10.75;100.00
12987;BME280;58897;51.960;5.582;2022-11-15T09:18:42;100399.53;;;10.86;100.00
12987;BME280;58897;51.960;5.582;2022-11-15T09:21:09;100402.56;;;10.83;100.00
12987;BME280;58897;51.960;5.582;2022-11-15T09:23:35;100398.34;;;10.88;100.00
12987;BME280;58897;51.960;5.582;2022-11-15T09:26:04;100406.34;;;10.74;100.00
12987;BME280;58897;51.960;5.582;2022-11-15T09:28:31;100398.25;;;10.74;100.00
12987;BME280;58897;51.960;5.582;2022-11-15T09:31:01;100414.44;;;10.74;100.00
12987;BME280;58897;51.960;5.582;2022-11-15T09:33:29;100404.91;;;10.94;100.00
12987;BME280;58897;51.960;5.582;2022-11-15T09:36:22;100383.56;;;13.93;100.00
12987;BME280;58897;51.960;5.582;2022-11-15T09:38:49;100369.16;;;18.49;83.88
12987;BME280;58897;51.960;5.582;2022-11-15T09:49:22;100358.31;;;17.87;75.38
12987;BME280;58897;51.960;5.582;2022-11-15T09:51:51;100362.56;;;15.71;87.35
12987;BME280;58897;51.960;5.582;2022-11-15T09:54:34;100360.13;;;16.86;82.78
12987;BME280;58897;51.960;5.582;2022-11-15T09:57:30;100379.13;;;13.07;100.00
12987;BME280;58897;51.960;5.582;2022-11-15T10:03:15;100362.41;;;14.37;93.36
12987;BME280;58897;51.960;5.582;2022-11-15T10:05:45;100369.09;;;12.43;100.00
12987;BME280;58897;51.960;5.582;2022-11-15T10:11:06;100359.88;;;13.38;100.00
12987;BME280;58897;51.960;5.582;2022-11-15T10:13:59;100364.84;;;12.11;100.00
12987;BME280;58897;51.960;5.582;2022-11-15T10:19:38;100354.09;;;13.90;99.79
12987;BME280;58897;51.960;5.582;2022-11-15T10:25:18;100356.72;;;12.84;100.00
12987;BME280;58897;51.960;5.582;2022-11-15T10:27:50;100355.00;;;13.12;100.00
12987;BME280;58897;51.960;5.582;2022-11-15T10:30:28;100350.22;;;13.99;96.24
12987;BME280;58897;51.960;5.582;2022-11-15T10:32:56;100344.88;;;14.12;94.50
12987;BME280;58897;51.960;5.582;2022-11-15T10:35:28;100337.88;;;13.96;95.21
12987;BME280;58897;51.960;5.582;2022-11-15T10:38:08;100337.16;;;13.88;93.02
12987;BME280;58897;51.960;5.582;2022-11-15T10:40:36;100337.38;;;13.86;92.83
12987;BME280;58897;51.960;5.582;2022-11-15T10:45:36;100323.41;;;13.89;91.32
12987;BME280;58897;51.960;5.582;2022-11-15T10:50:43;100317.75;;;14.18;89.17
12987;BME280;58897;51.960;5.582;2022-11-15T10:53:38;100320.50;;;13.91;90.85
12987;BME280;58897;51.960;5.582;2022-11-15T10:56:12;100316.44;;;14.36;87.92
12987;BME280;58897;51.960;5.582;2022-11-15T10:58:44;100311.44;;;14.39;85.50
12987;BME280;58897;51.960;5.582;2022-11-15T11:01:18;100296.41;;;13.81;87.51
12987;BME280;58897;51.960;5.582;2022-11-15T11:06:25;100287.38;;;14.83;85.02
12987;BME280;58897;51.960;5.582;2022-11-15T11:09:02;100285.38;;;14.17;86.48
12987;BME280;58897;51.960;5.582;2022-11-15T11:11:49;100297.22;;;14.37;84.17
12987;BME280;58897;51.960;5.582;2022-11-15T11:14:20;100276.34;;;13.82;87.01
12987;BME280;58897;51.960;5.582;2022-11-15T11:17:17;100287.94;;;14.59;83.17
12987;BME280;58897;51.960;5.582;2022-11-15T11:23:03;100278.59;;;14.75;81.56
12987;BME280;58897;51.960;5.582;2022-11-15T11:25:50;100265.59;;;15.51;78.91
12987;BME280;58897;51.960;5.582;2022-11-15T11:31:13;100268.34;;;14.77;81.74
12987;BME280;58897;51.960;5.582;2022-11-15T11:37:03;100282.00;;;15.10;77.92
12987;BME280;58897;51.960;5.582;2022-11-15T11:46:36;100251.78;;;14.72;77.32
12987;BME280;58897;51.960;5.582;2022-11-15T11:49:09;100256.63;;;16.53;70.98
12987;BME280;58897;51.960;5.582;2022-11-15T11:51:43;100251.69;;;15.13;74.60
12987;BME280;58897;51.960;5.582;2022-11-15T11:54:17;100262.78;;;15.11;75.04
12987;BME280;58897;51.960;5.582;2022-11-15T11:56:45;100237.06;;;14.47;nan
12987;BME280;58897;51.960;5.582;2022-11-15T11:59:48;100233.25;;;14.35;77.66
12987;BME280;58897;51.960;5.582;2022-11-15T12:02:30;100214.88;;;15.17;74.76
12987;BME280;58897;51.960;5.582;2022-11-15T12:05:27;100209.31;;;14.71;74.45
12987;BME280;58897;51.960;5.582;2022-11-15T12:07:51;100218.19;;;14.93;74.70
12987;BME280;58897;51.960;5.582;2022-11-15T12:10:23;100217.06;;;14.27;76.32
12987;BME280;58897;51.960;5.582;2022-11-15T12:13:01;100227.94;;;13.86;77.48
12987;BME280;58897;51.960;5.582;2022-11-15T12:15:32;100214.34;;;14.27;76.77
12987;BME280;58897;51.960;5.582;2022-11-15T12:18:01;100220.63;;;14.27;76.93
12987;BME280;58897;51.960;5.582;2022-11-15T12:20:36;100213.72;;;14.18;77.23
12987;BME280;58897;51.960;5.582;2022-11-15T12:23:12;100204.84;;;14.03;78.73
12987;BME280;58897;51.960;5.582;2022-11-15T12:25:48;100193.78;;;14.45;78.45
12987;BME280;58897;51.960;5.582;2022-11-15T12:28:30;100182.31;;;14.56;76.30
12987;BME280;58897;51.960;5.582;2022-11-15T12:31:02;100178.53;;;14.57;78.18
12987;BME280;58897;51.960;5.582;2022-11-15T12:33:43;100177.34;;;14.19;78.27
12987;BME280;58897;51.960;5.582;2022-11-15T12:36:23;100175.25;;;14.62;77.98
12987;BME280;58897;51.960;5.582;2022-11-15T12:39:01;100168.38;;;14.92;76.08
12987;BME280;58897;51.960;5.582;2022-11-15T12:41:30;100160.31;;;14.38;76.28
12987;BME280;58897;51.960;5.582;2022-11-15T12:43:57;100146.34;;;14.48;75.81
12987;BME280;58897;51.960;5.582;2022-11-15T12:48:57;100144.66;;;14.34;77.46
12987;BME280;58897;51.960;5.582;2022-11-15T12:59:55;100116.88;;;14.58;75.04
12987;BME280;58897;51.960;5.582;2022-11-15T13:02:38;100115.41;;;14.55;75.95
12987;BME280;58897;51.960;5.582;2022-11-15T13:13:03;100104.06;;;13.85;79.60
12987;BME280;58897;51.960;5.582;2022-11-15T13:15:33;100101.06;;;13.67;78.50
12987;BME280;58897;51.960;5.582;2022-11-15T13:18:30;100099.97;;;13.54;81.40
12987;BME280;58897;51.960;5.582;2022-11-15T13:20:58;100111.13;;;13.38;80.58
12987;BME280;58897;51.960;5.582;2022-11-15T13:23:28;100103.06;;;13.17;80.81
12987;BME280;58897;51.960;5.582;2022-11-15T13:26:12;100103.50;;;13.21;81.54
12987;BME280;58897;51.960;5.582;2022-11-15T13:28:42;100103.72;;;12.98;81.95
12987;BME280;58897;51.960;5.582;2022-11-15T13:31:35;100096.13;;;12.87;82.63
12987;BME280;58897;51.960;5.582;2022-11-15T13:34:22;100091.19;;;12.69;83.98
12987;BME280;58897;51.960;5.582;2022-11-15T13:37:29;100090.59;;;12.74;83.42
12987;BME280;58897;51.960;5.582;2022-11-15T13:40:15;100082.59;;;12.66;85.14
12987;BME280;58897;51.960;5.582;2022-11-15T13:42:42;100079.88;;;12.66;85.64
12987;BME280;58897;51.960;5.582;2022-11-15T13:45:15;100078.75;;;12.54;85.21
12987;BME280;58897;51.960;5.582;2022-11-15T13:47:42;100065.94;;;12.69;86.87
12987;BME280;58897;51.960;5.582;2022-11-15T13:50:12;100063.50;;;12.53;86.53
12987;BME280;58897;51.960;5.582;2022-11-15T13:52:40;100064.56;;;12.30;86.41
12987;BME280;58897;51.960;5.582;2022-11-15T13:55:19;100050.72;;;12.25;86.15
12987;BME280;58897;51.960;5.582;2022-11-15T13:57:58;100049.56;;;12.34;86.53
12987;BME280;58897;51.960;5.582;2022-11-15T14:00:42;100049.03;;;12.03;88.23
12987;BME280;58897;51.960;5.582;2022-11-15T14:03:22;100053.03;;;12.07;87.46
12987;BME280;58897;51.960;5.582;2022-11-15T14:06:11;100044.34;;;11.91;87.65
12987;BME280;58897;51.960;5.582;2022-11-15T14:08:39;100042.00;;;11.88;88.89
12987;BME280;58897;51.960;5.582;2022-11-15T14:13:40;100033.63;;;11.83;88.93
12987;BME280;58897;51.960;5.582;2022-11-15T14:21:31;100021.22;;;11.73;88.90
12987;BME280;58897;51.960;5.582;2022-11-15T14:24:19;100012.97;;;11.82;89.75
12987;BME280;58897;51.960;5.582;2022-11-15T14:26:46;100012.47;;;11.71;88.96
12987;BME280;58897;51.960;5.582;2022-11-15T14:29:27;100000.31;;;11.82;88.47
12987;BME280;58897;51.960;5.582;2022-11-15T14:35:16;99993.88;;;11.83;86.69
12987;BME280;58897;51.960;5.582;2022-11-15T14:37:46;99991.28;;;11.75;88.88
12987;BME280;58897;51.960;5.582;2022-11-15T14:40:17;99984.44;;;11.79;89.25
12987;BME280;58897;51.960;5.582;2022-11-15T14:42:52;99983.34;;;11.73;89.18
12987;BME280;58897;51.960;5.582;2022-11-15T14:45:22;99973.94;;;11.69;88.94
12987;BME280;58897;51.960;5.582;2022-11-15T14:48:10;99976.06;;;11.74;86.82
12987;BME280;58897;51.960;5.582;2022-11-15T14:53:15;99969.13;;;11.86;89.83
12987;BME280;58897;51.960;5.582;2022-11-15T14:55:44;99964.69;;;11.64;87.88
12987;BME280;58897;51.960;5.582;2022-11-15T15:04:55;99948.06;;;11.67;89.94
12987;BME280;58897;51.960;5.582;2022-11-15T15:07:27;99940.81;;;11.67;88.36